createdAt,value
2019-05-03T00:01:54.859Z,18.02
2019-05-03T00:05:23.806Z,18.02
2019-05-03T00:08:29.529Z,17.84
2019-05-03T00:11:35.268Z,17.84
2019-05-03T00:14:42.689Z,17.95
2019-05-03T00:17:48.507Z,17.80
2019-05-03T00:20:54.317Z,17.76
2019-05-03T00:24:00.039Z,17.80
2019-05-03T00:27:05.973Z,17.82
2019-05-03T00:30:12.115Z,17.94
2019-05-03T00:33:17.905Z,17.94
2019-05-03T00:36:32.943Z,17.94
2019-05-03T00:39:48.614Z,17.91
2019-05-03T00:42:54.388Z,17.83
2019-05-03T00:46:01.876Z,17.92
2019-05-03T00:49:07.519Z,17.84
2019-05-03T00:52:13.236Z,17.96
2019-05-03T00:55:19.364Z,17.76
2019-05-03T00:58:25.228Z,17.47
2019-05-03T01:01:32.081Z,17.56
2019-05-03T01:04:38.101Z,17.67
2019-05-03T01:07:43.806Z,17.63
2019-05-03T01:10:51.518Z,17.76
2019-05-03T01:13:57.101Z,17.64
2019-05-03T01:17:03.769Z,17.66
2019-05-03T01:20:11.965Z,17.48
2019-05-03T01:23:17.954Z,17.60
2019-05-03T01:26:23.620Z,17.40
2019-05-03T01:29:29.324Z,17.37
2019-05-03T01:32:35.001Z,17.50
2019-05-03T01:35:42.661Z,17.49
2019-05-03T01:38:49.274Z,17.24
2019-05-03T01:41:55.351Z,17.25
2019-05-03T01:45:01.797Z,17.31
2019-05-03T01:48:15.664Z,17.37
2019-05-03T01:51:41.965Z,17.28
2019-05-03T01:54:47.774Z,17.48
2019-05-03T01:57:53.527Z,17.38
2019-05-03T02:01:17.047Z,17.26
2019-05-03T02:04:32.178Z,17.37
2019-05-03T02:07:37.537Z,17.30
2019-05-03T02:10:43.726Z,17.45
2019-05-03T02:13:49.711Z,17.34
2019-05-03T02:16:55.714Z,17.32
2019-05-03T02:20:02.748Z,16.99
2019-05-03T02:23:08.541Z,16.85
2019-05-03T02:26:14.282Z,16.64
2019-05-03T02:29:21.827Z,16.52
2019-05-03T02:32:27.453Z,16.53
2019-05-03T02:35:33.514Z,16.70
2019-05-03T02:38:39.544Z,17.03
2019-05-03T02:41:48.452Z,17.07
2019-05-03T02:44:55.145Z,16.80
2019-05-03T02:48:06.862Z,16.82
2019-05-03T02:51:15.436Z,16.72
2019-05-03T02:54:20.133Z,16.97
2019-05-03T02:57:26.038Z,17.11
2019-05-03T03:00:56.234Z,16.73
2019-05-03T03:04:05.131Z,16.99
2019-05-03T03:07:11.288Z,16.87
2019-05-03T03:10:17.417Z,16.85
2019-05-03T03:13:25.649Z,17.05
2019-05-03T03:16:36.254Z,16.97
2019-05-03T03:19:46.130Z,17.17
2019-05-03T03:22:55.609Z,17.20
2019-05-03T03:26:06.158Z,17.20
2019-05-03T03:29:16.154Z,17.21
2019-05-03T03:32:31.323Z,16.58
2019-05-03T03:35:38.857Z,16.79
2019-05-03T03:38:45.867Z,16.60
2019-05-03T03:41:55.778Z,16.80
2019-05-03T03:45:06.016Z,17.18
2019-05-03T03:48:15.797Z,17.26
2019-05-03T03:51:26.153Z,17.48
2019-05-03T03:54:35.541Z,17.70
2019-05-03T03:57:42.250Z,17.74
2019-05-03T04:00:48.251Z,17.94
2019-05-03T04:03:56.125Z,18.11
2019-05-03T04:07:02.016Z,18.26
2019-05-03T04:10:08.709Z,18.31
2019-05-03T04:13:15.967Z,18.37
2019-05-03T04:16:30.810Z,18.24
2019-05-03T04:19:38.872Z,18.37
2019-05-03T04:22:45.381Z,18.37
2019-05-03T04:25:56.733Z,18.38
2019-05-03T04:29:05.062Z,18.49
2019-05-03T04:32:10.768Z,18.59
2019-05-03T04:35:16.728Z,18.73
2019-05-03T04:38:25.315Z,18.73
2019-05-03T04:41:30.002Z,18.96
2019-05-03T04:44:36.151Z,19.00
2019-05-03T04:47:41.981Z,18.87
2019-05-03T04:50:47.717Z,18.95
2019-05-03T04:54:12.292Z,18.94
2019-05-03T04:57:35.123Z,19.38
2019-05-03T05:00:26.079Z,19.52
2019-05-03T05:03:31.949Z,19.68
2019-05-03T05:06:37.661Z,19.58
2019-05-03T05:09:45.626Z,19.89
2019-05-03T05:12:50.773Z,20.18
2019-05-03T05:15:56.418Z,20.49
2019-05-03T05:19:06.289Z,20.75
2019-05-03T05:22:13.087Z,20.90
2019-05-03T05:25:21.289Z,21.11
2019-05-03T05:28:37.702Z,21.00
2019-05-03T05:31:44.644Z,20.93
2019-05-03T05:34:51.238Z,21.08
2019-05-03T05:37:56.931Z,21.31
2019-05-03T05:41:05.175Z,21.62
2019-05-03T05:44:14.441Z,21.62
2019-05-03T05:47:37.947Z,21.90
2019-05-03T05:50:47.742Z,22.25
2019-05-03T05:54:05.214Z,22.36
2019-05-03T05:57:27.938Z,22.47
2019-05-03T06:00:52.572Z,22.39
2019-05-03T06:04:00.249Z,22.50
2019-05-03T06:07:35.112Z,22.72
2019-05-03T06:10:49.820Z,22.97
2019-05-03T06:14:04.919Z,23.14
2019-05-03T06:17:32.336Z,23.10
2019-05-03T06:21:06.687Z,23.64
2019-05-03T06:24:18.217Z,23.90
2019-05-03T06:27:29.509Z,24.11
2019-05-03T06:30:59.588Z,23.57
2019-05-03T06:34:05.611Z,23.68
2019-05-03T06:37:14.791Z,24.31
2019-05-03T06:40:20.760Z,24.13
2019-05-03T06:43:26.734Z,24.27
2019-05-03T06:46:46.054Z,24.35
2019-05-03T06:49:55.116Z,24.66
2019-05-03T06:53:05.949Z,24.92
2019-05-03T06:56:07.854Z,24.80
2019-05-03T06:59:19.463Z,25.13
2019-05-03T07:02:56.392Z,25.05
2019-05-03T07:06:36.382Z,25.27
2019-05-03T07:09:38.667Z,25.17
2019-05-03T07:13:02.418Z,25.16
2019-05-03T07:16:10.997Z,25.37
2019-05-03T07:19:16.723Z,25.49
2019-05-03T07:22:24.314Z,25.49
2019-05-03T07:25:29.883Z,25.68
2019-05-03T07:28:46.222Z,26.04
2019-05-03T07:31:44.663Z,26.05
2019-05-03T07:34:50.629Z,25.91
2019-05-03T07:37:56.388Z,26.03
2019-05-03T07:41:02.067Z,26.31
2019-05-03T07:44:08.001Z,26.50
2019-05-03T07:47:14.856Z,26.66
2019-05-03T07:50:21.297Z,27.15
2019-05-03T07:53:27.003Z,27.09
2019-05-03T07:56:44.586Z,27.36
2019-05-03T07:59:50.391Z,27.16
2019-05-03T08:02:56.133Z,27.21
2019-05-03T08:06:02.033Z,27.10
2019-05-03T08:09:11.182Z,27.03
2019-05-03T08:12:16.882Z,26.78
2019-05-03T08:15:24.545Z,27.36
2019-05-03T08:18:30.382Z,27.04
2019-05-03T08:21:38.560Z,27.43
2019-05-03T08:24:44.856Z,27.84
2019-05-03T08:27:51.635Z,28.07
2019-05-03T08:31:15.213Z,27.78
2019-05-03T08:34:45.306Z,27.75
2019-05-03T08:37:56.295Z,28.43
2019-05-03T08:41:05.319Z,28.63
2019-05-03T08:44:12.071Z,28.69
2019-05-03T08:47:17.834Z,28.89
2019-05-03T08:50:25.681Z,28.24
2019-05-03T08:53:31.757Z,28.56
2019-05-03T08:56:37.607Z,28.13
2019-05-03T08:59:44.622Z,28.44
2019-05-03T09:02:50.784Z,28.69
2019-05-03T09:05:56.644Z,28.04
2019-05-03T09:09:04.730Z,29.08
2019-05-03T09:12:10.973Z,29.26
2019-05-03T09:15:16.914Z,29.43
2019-05-03T09:18:22.681Z,29.42
2019-05-03T09:21:28.442Z,29.37
2019-05-03T09:24:35.167Z,29.32
2019-05-03T09:27:41.027Z,29.40
2019-05-03T09:30:46.875Z,29.50
2019-05-03T09:33:54.530Z,29.65
2019-05-03T09:37:00.114Z,29.77
2019-05-03T09:40:06.242Z,29.30
2019-05-03T09:43:11.963Z,29.61
2019-05-03T09:46:17.717Z,29.87
2019-05-03T09:49:25.313Z,29.92
2019-05-03T09:52:31.187Z,30.21
2019-05-03T09:55:40.261Z,30.16
2019-05-03T09:58:46.284Z,30.55
2019-05-03T10:01:51.963Z,29.91
2019-05-03T10:04:57.913Z,30.39
2019-05-03T10:08:05.172Z,30.57
2019-05-03T10:11:11.076Z,30.48
2019-05-03T10:14:16.858Z,30.92
2019-05-03T10:17:55.471Z,30.55
2019-05-03T10:21:01.413Z,30.53
2019-05-03T10:24:07.308Z,30.31
2019-05-03T10:27:15.095Z,29.85
2019-05-03T10:30:28.922Z,30.44
2019-05-03T10:33:47.781Z,30.12
2019-05-03T10:36:54.839Z,29.79
2019-05-03T10:40:05.810Z,29.68
2019-05-03T10:43:11.839Z,29.64
2019-05-03T10:46:17.626Z,29.91
2019-05-03T10:49:24.501Z,30.14
2019-05-03T10:52:35.008Z,29.44
2019-05-03T10:55:45.086Z,29.88
2019-05-03T10:59:00.416Z,30.28
2019-05-03T11:02:12.441Z,30.21
2019-05-03T11:05:18.201Z,30.22
2019-05-03T11:08:24.151Z,29.57
2019-05-03T11:11:29.877Z,30.10
2019-05-03T11:14:35.557Z,30.17
2019-05-03T11:17:41.253Z,29.79
2019-05-03T11:20:46.963Z,30.38
2019-05-03T11:23:54.522Z,30.54
2019-05-03T11:27:02.493Z,30.20
2019-05-03T11:30:09.664Z,30.66
2019-05-03T11:33:20.396Z,30.72
2019-05-03T11:36:57.338Z,30.78
2019-05-03T11:40:05.110Z,30.47
2019-05-03T11:43:15.125Z,30.25
2019-05-03T11:46:19.343Z,30.60
2019-05-03T11:49:25.510Z,30.17
2019-05-03T11:52:31.519Z,30.10
2019-05-03T11:55:37.400Z,30.27
2019-05-03T11:58:45.210Z,30.44
2019-05-03T12:02:18.312Z,30.45
2019-05-03T12:05:26.522Z,30.01
2019-05-03T12:08:34.463Z,30.10
2019-05-03T12:11:40.610Z,29.83
2019-05-03T12:14:46.329Z,29.76
2019-05-03T12:17:58.614Z,30.21
2019-05-03T12:21:04.026Z,30.31
2019-05-03T12:24:10.638Z,30.34
2019-05-03T12:27:16.988Z,30.17
2019-05-03T12:30:25.516Z,29.83
2019-05-03T12:33:30.444Z,29.90
2019-05-03T12:36:39.200Z,29.88
2019-05-03T12:39:44.723Z,30.17
2019-05-03T12:42:50.602Z,29.61
2019-05-03T12:45:56.418Z,29.30
2019-05-03T12:49:02.178Z,29.59
2019-05-03T12:52:10.340Z,29.82
2019-05-03T12:55:16.437Z,30.23
2019-05-03T12:58:25.390Z,29.89
2019-05-03T13:01:56.239Z,29.78
2019-05-03T13:05:02.080Z,29.77
2019-05-03T13:08:45.346Z,29.55
2019-05-03T13:11:56.370Z,30.06
2019-05-03T13:14:59.818Z,29.84
2019-05-03T13:18:08.047Z,29.79
2019-05-03T13:21:13.799Z,29.71
2019-05-03T13:24:23.136Z,29.47
2019-05-03T13:27:27.052Z,29.51
2019-05-03T13:30:34.514Z,29.51
2019-05-03T13:33:40.533Z,29.89
2019-05-03T13:36:46.249Z,29.69
2019-05-03T13:39:52.020Z,28.95
2019-05-03T13:43:03.625Z,28.56
2019-05-03T13:46:06.855Z,28.80
2019-05-03T13:49:15.852Z,29.34
2019-05-03T13:52:25.108Z,29.30
2019-05-03T13:55:30.851Z,29.44
2019-05-03T13:58:36.609Z,29.15
2019-05-03T14:01:42.674Z,28.33
2019-05-03T14:04:52.379Z,28.56
2019-05-03T14:07:56.407Z,28.66
2019-05-03T14:11:02.228Z,28.80
2019-05-03T14:14:10.551Z,28.57
2019-05-03T14:17:16.296Z,28.16
2019-05-03T14:21:04.970Z,28.85
2019-05-03T14:24:09.775Z,29.16
2019-05-03T14:27:17.182Z,28.64
2019-05-03T14:30:25.264Z,28.93
2019-05-03T14:33:32.898Z,28.56
2019-05-03T14:36:45.210Z,28.51
2019-05-03T14:39:52.021Z,27.90
2019-05-03T14:42:57.770Z,27.90
2019-05-03T14:46:05.449Z,27.15
2019-05-03T14:49:11.202Z,27.48
2019-05-03T14:52:16.931Z,27.99
2019-05-03T14:55:35.559Z,28.16
2019-05-03T14:59:09.444Z,28.19
2019-05-03T15:02:44.537Z,28.79
2019-05-03T15:05:46.871Z,29.04
2019-05-03T15:08:54.618Z,27.99
2019-05-03T15:12:00.280Z,27.51
2019-05-03T15:15:06.852Z,27.16
2019-05-03T15:18:14.757Z,26.86
2019-05-03T15:21:20.076Z,26.79
2019-05-03T15:24:25.741Z,26.24
2019-05-03T15:27:31.558Z,26.35
2019-05-03T15:30:41.633Z,26.20
2019-05-03T15:33:47.416Z,26.19
2019-05-03T15:36:54.634Z,26.16
2019-05-03T15:40:00.715Z,26.39
2019-05-03T15:43:31.397Z,26.41
2019-05-03T15:46:54.557Z,26.50
2019-05-03T15:50:00.331Z,26.69
2019-05-03T15:53:06.099Z,26.82
2019-05-03T15:56:11.767Z,26.72
2019-05-03T15:59:19.806Z,26.04
2019-05-03T16:02:25.545Z,25.91
2019-05-03T16:05:31.999Z,25.93
2019-05-03T16:08:39.170Z,25.85
2019-05-03T16:11:55.594Z,25.87
2019-05-03T16:15:01.538Z,25.80
2019-05-03T16:18:07.223Z,25.58
2019-05-03T16:21:14.633Z,25.68
2019-05-03T16:24:20.576Z,25.43
2019-05-03T16:27:47.190Z,25.29
2019-05-03T16:30:57.741Z,25.12
2019-05-03T16:34:04.317Z,25.27
2019-05-03T16:37:10.882Z,25.30
2019-05-03T16:40:16.958Z,25.36
2019-05-03T16:43:25.502Z,25.27
2019-05-03T16:46:30.818Z,25.19
2019-05-03T16:49:41.288Z,25.08
2019-05-03T16:52:47.394Z,24.91
2019-05-03T16:55:56.385Z,24.85
2019-05-03T16:59:02.381Z,24.75
2019-05-03T17:02:08.618Z,24.65
2019-05-03T17:05:35.126Z,24.55
2019-05-03T17:09:08.372Z,24.62
2019-05-03T17:12:21.176Z,24.30
2019-05-03T17:15:26.886Z,24.16
2019-05-03T17:18:32.586Z,24.14
2019-05-03T17:21:38.275Z,24.16
2019-05-03T17:24:44.448Z,24.06
2019-05-03T17:27:50.481Z,24.23
2019-05-03T17:30:56.438Z,24.10
2019-05-03T17:34:02.249Z,23.97
2019-05-03T17:37:08.187Z,23.91
2019-05-03T17:40:44.200Z,23.83
2019-05-03T17:44:02.714Z,23.90
2019-05-03T17:47:08.451Z,23.84
2019-05-03T17:50:14.759Z,23.84
2019-05-03T17:53:55.173Z,24.07
2019-05-03T17:57:05.504Z,23.96
2019-05-03T18:00:30.692Z,23.74
2019-05-03T18:03:39.102Z,23.82
2019-05-03T18:06:55.595Z,23.84
2019-05-03T18:10:02.036Z,23.85
2019-05-03T18:13:10.551Z,24.05
2019-05-03T18:16:16.241Z,23.75
2019-05-03T18:19:21.994Z,23.82
2019-05-03T18:22:27.732Z,23.86
2019-05-03T18:25:35.345Z,23.85
2019-05-03T18:28:42.130Z,23.94
2019-05-03T18:31:48.063Z,24.05
2019-05-03T18:34:56.794Z,24.02
2019-05-03T18:38:02.499Z,24.20
2019-05-03T18:41:09.607Z,24.09
2019-05-03T18:44:23.460Z,23.66
2019-05-03T18:47:30.228Z,23.81
2019-05-03T18:50:35.872Z,23.75
2019-05-03T18:53:41.609Z,23.90
2019-05-03T18:56:47.301Z,23.95
2019-05-03T18:59:52.999Z,23.76
2019-05-03T19:03:00.995Z,23.83
2019-05-03T19:06:08.177Z,23.87
2019-05-03T19:09:48.271Z,23.79
2019-05-03T19:13:26.415Z,23.71
2019-05-03T19:16:42.536Z,23.79
2019-05-03T19:19:49.691Z,23.81
2019-05-03T19:22:55.377Z,23.76
2019-05-03T19:26:01.268Z,23.89
2019-05-03T19:29:07.167Z,23.57
2019-05-03T19:32:14.849Z,23.82
2019-05-03T19:35:27.696Z,23.66
2019-05-03T19:38:35.165Z,23.73
2019-05-03T19:41:41.046Z,23.81
2019-05-03T19:44:46.848Z,23.82
2019-05-03T19:47:52.646Z,23.43
2019-05-03T19:50:59.740Z,23.35
2019-05-03T19:54:05.835Z,23.18
2019-05-03T19:57:15.110Z,22.98
2019-05-03T20:00:22.825Z,22.56
2019-05-03T20:03:50.572Z,22.40
2019-05-03T20:07:05.356Z,22.34
2019-05-03T20:10:11.424Z,22.12
2019-05-03T20:13:17.257Z,21.97
2019-05-03T20:16:22.952Z,21.73
2019-05-03T20:19:28.838Z,22.23
2019-05-03T20:22:35.124Z,22.00
2019-05-03T20:25:41.225Z,22.04
2019-05-03T20:28:47.017Z,22.02
2019-05-03T20:31:52.707Z,21.73
2019-05-03T20:35:10.723Z,21.74
2019-05-03T20:38:05.836Z,21.96
2019-05-03T20:41:11.521Z,21.73
2019-05-03T20:44:31.916Z,21.90
2019-05-03T20:47:51.149Z,21.84
2019-05-03T20:50:57.062Z,21.80
2019-05-03T20:54:04.677Z,21.68
2019-05-03T20:57:10.255Z,21.73
2019-05-03T21:00:19.898Z,21.77
2019-05-03T21:03:25.609Z,21.81
2019-05-03T21:06:35.433Z,21.75
2019-05-03T21:09:38.789Z,21.33
2019-05-03T21:12:44.471Z,21.46
2019-05-03T21:16:09.037Z,21.21
2019-05-03T21:19:44.702Z,21.23
2019-05-03T21:22:51.094Z,21.15
2019-05-03T21:26:12.493Z,21.10
2019-05-03T21:29:15.186Z,20.95
2019-05-03T21:32:21.352Z,20.60
2019-05-03T21:35:40.840Z,20.64
2019-05-03T21:38:35.428Z,20.88
2019-05-03T21:41:41.416Z,20.90
2019-05-03T21:44:47.104Z,20.44
2019-05-03T21:47:58.369Z,20.24
2019-05-03T21:51:04.456Z,20.44
2019-05-03T21:54:10.326Z,20.44
2019-05-03T21:57:16.574Z,20.59
2019-05-03T22:00:24.453Z,21.03
2019-05-03T22:03:31.741Z,21.31
2019-05-03T22:06:37.482Z,21.46
2019-05-03T22:09:45.173Z,21.51
2019-05-03T22:12:50.698Z,21.49
2019-05-03T22:16:01.957Z,21.36
2019-05-03T22:19:07.645Z,21.34
2019-05-03T22:22:47.367Z,21.36
2019-05-03T22:25:54.320Z,20.97
2019-05-03T22:29:00.742Z,21.35
2019-05-03T22:32:06.705Z,21.36
2019-05-03T22:35:12.500Z,21.33
2019-05-03T22:38:18.246Z,21.39
2019-05-03T22:41:25.304Z,21.17
2019-05-03T22:44:31.253Z,20.91
2019-05-03T22:47:36.956Z,20.70
2019-05-03T22:50:42.660Z,20.82
2019-05-03T22:53:48.456Z,21.01
2019-05-03T22:56:55.458Z,20.87
2019-05-03T23:00:01.473Z,20.95
2019-05-03T23:03:08.735Z,21.01
2019-05-03T23:06:21.971Z,20.73
2019-05-03T23:09:21.968Z,20.57
2019-05-03T23:12:27.794Z,20.53
2019-05-03T23:15:34.796Z,20.61
2019-05-03T23:18:41.784Z,20.82
2019-05-03T23:22:06.122Z,20.83
2019-05-03T23:25:12.073Z,20.84
2019-05-03T23:28:17.924Z,20.77
2019-05-03T23:31:25.127Z,20.86
2019-05-03T23:34:31.174Z,20.65
2019-05-03T23:37:36.868Z,20.62
2019-05-03T23:40:44.670Z,20.47
2019-05-03T23:43:50.032Z,20.45
2019-05-03T23:47:08.630Z,20.18
2019-05-03T23:50:17.915Z,20.46
2019-05-03T23:53:23.604Z,20.59
2019-05-03T23:56:29.400Z,20.45
2019-05-03T23:59:35.399Z,20.42
